createdAt,value
2023-04-09T00:00:37.456Z,17.58
2023-04-09T00:03:31.403Z,17.70
2023-04-09T00:06:18.509Z,15.60
2023-04-09T00:09:12.483Z,16.63
2023-04-09T00:12:06.267Z,17.23
2023-04-09T00:14:53.457Z,16.17
2023-04-09T00:17:47.280Z,16.95
2023-04-09T00:20:41.246Z,20.10
2023-04-09T00:23:28.382Z,19.23
2023-04-09T00:26:22.406Z,18.33
2023-04-09T00:29:16.304Z,17.40
2023-04-09T00:32:03.502Z,17.75
2023-04-09T00:34:57.355Z,20.20
2023-04-09T00:37:44.473Z,17.75
2023-04-09T00:40:38.323Z,18.10
2023-04-09T00:43:32.301Z,20.35
2023-04-09T00:46:19.535Z,17.42
2023-04-09T00:49:13.330Z,18.70
2023-04-09T00:52:07.344Z,17.92
2023-04-09T00:55:02.407Z,18.15
2023-04-09T00:57:49.548Z,18.35
2023-04-09T01:00:43.372Z,18.20
2023-04-09T01:03:37.460Z,18.30
2023-04-09T01:06:51.391Z,21.70
2023-04-09T01:10:01.372Z,20.92
2023-04-09T01:13:07.296Z,20.83
2023-04-09T01:16:04.420Z,19.05
2023-04-09T01:18:59.791Z,18.98
2023-04-09T01:21:54.373Z,17.02
2023-04-09T01:25:21.353Z,18.08
2023-04-09T01:28:39.377Z,17.83
2023-04-09T01:31:42.360Z,16.60
2023-04-09T01:37:32.356Z,19.33
2023-04-09T01:40:19.707Z,17.05
2023-04-09T01:43:15.413Z,17.13
2023-04-09T01:46:05.646Z,15.88
2023-04-09T01:48:59.427Z,17.73
2023-04-09T01:51:48.285Z,18.05
2023-04-09T01:54:42.430Z,18.25
2023-04-09T01:57:30.688Z,16.27
2023-04-09T02:00:24.379Z,15.20
2023-04-09T02:03:21.020Z,16.52
2023-04-09T02:06:22.388Z,15.77
2023-04-09T02:09:16.441Z,15.48
2023-04-09T02:12:12.593Z,14.95
2023-04-09T02:15:08.477Z,14.63
2023-04-09T02:18:02.473Z,15.80
2023-04-09T02:20:56.499Z,13.55
2023-04-09T02:23:43.574Z,12.73
2023-04-09T02:26:37.460Z,13.38
2023-04-09T02:29:24.584Z,15.85
2023-04-09T02:32:18.516Z,13.77
2023-04-09T02:35:12.450Z,11.90
2023-04-09T02:37:59.638Z,15.18
2023-04-09T02:40:53.524Z,14.65
2023-04-09T02:44:24.824Z,13.15
2023-04-09T02:47:11.884Z,14.88
2023-04-09T02:50:05.829Z,14.18
2023-04-09T02:52:53.009Z,14.98
2023-04-09T02:55:46.811Z,17.45
2023-04-09T02:58:33.991Z,12.90
2023-04-09T03:01:27.880Z,13.85
2023-04-09T03:04:15.059Z,12.57
2023-04-09T03:07:08.964Z,15.27
2023-04-09T03:09:56.117Z,12.73
2023-04-09T03:12:50.832Z,14.02
2023-04-09T03:15:38.021Z,13.38
2023-04-09T03:18:31.906Z,15.60
2023-04-09T03:21:18.986Z,13.25
2023-04-09T03:24:12.871Z,13.88
2023-04-09T03:27:06.933Z,13.10
2023-04-09T03:29:56.536Z,13.23
2023-04-09T03:32:50.000Z,15.27
2023-04-09T03:35:43.928Z,16.55
2023-04-09T03:38:37.891Z,14.25
2023-04-09T03:41:26.704Z,14.20
2023-04-09T03:44:19.922Z,12.73
2023-04-09T03:47:07.963Z,14.70
2023-04-09T03:50:07.931Z,14.07
2023-04-09T03:52:55.158Z,14.75
2023-04-09T03:55:48.986Z,13.52
2023-04-09T03:58:42.888Z,13.68
2023-04-09T04:01:29.921Z,14.02
2023-04-09T04:04:24.234Z,14.80
2023-04-09T04:07:17.890Z,13.98
2023-04-09T04:10:08.428Z,12.15
2023-04-09T04:13:01.965Z,14.93
2023-04-09T04:15:55.947Z,13.77
2023-04-09T04:18:43.079Z,15.38
2023-04-09T04:21:37.267Z,14.57
2023-04-09T04:24:24.549Z,12.40
2023-04-09T04:27:17.948Z,13.88
2023-04-09T04:30:11.984Z,14.90
2023-04-09T04:32:59.182Z,14.90
2023-04-09T04:35:53.010Z,14.88
2023-04-09T04:38:47.124Z,15.10
2023-04-09T04:41:41.026Z,17.33
2023-04-09T04:44:28.142Z,18.05
2023-04-09T04:47:22.003Z,15.13
2023-04-09T04:50:16.022Z,15.68
2023-04-09T04:53:03.136Z,15.88
2023-04-09T04:55:57.021Z,13.85
2023-04-09T04:58:51.202Z,14.55
2023-04-09T05:01:38.586Z,16.45
2023-04-09T05:04:32.013Z,14.10
2023-04-09T05:07:19.140Z,16.20
2023-04-09T05:10:14.082Z,16.02
2023-04-09T05:13:08.123Z,17.90
2023-04-09T05:15:55.242Z,15.65
2023-04-09T05:18:49.024Z,17.30
2023-04-09T05:21:36.116Z,16.50
2023-04-09T05:24:30.113Z,15.75
2023-04-09T05:27:26.154Z,15.73
2023-04-09T05:30:13.478Z,15.00
2023-04-09T05:33:07.103Z,13.90
2023-04-09T05:35:54.290Z,14.90
2023-04-09T05:38:48.088Z,14.40
2023-04-09T05:41:37.279Z,12.60
2023-04-09T05:44:31.057Z,13.25
2023-04-09T05:47:18.132Z,12.82
2023-04-09T05:50:13.098Z,12.90
2023-04-09T05:53:00.222Z,13.93
2023-04-09T05:55:56.140Z,13.82
2023-04-09T05:58:43.312Z,15.00
2023-04-09T06:01:37.214Z,13.18
2023-04-09T06:04:24.464Z,10.98
2023-04-09T06:07:18.166Z,15.52
2023-04-09T06:10:12.142Z,13.13
2023-04-09T06:13:06.160Z,12.43
2023-04-09T06:15:53.364Z,14.98
2023-04-09T06:18:49.168Z,13.30
2023-04-09T06:21:36.569Z,14.05
2023-04-09T06:24:30.141Z,18.63
2023-04-09T06:27:25.147Z,18.30
2023-04-09T06:30:12.566Z,17.55
2023-04-09T06:33:06.228Z,21.33
2023-04-09T06:36:00.301Z,20.40
2023-04-09T06:38:47.468Z,26.08
2023-04-09T06:41:41.165Z,21.38
2023-04-09T06:44:35.186Z,21.48
2023-04-09T06:47:22.322Z,26.70
2023-04-09T06:50:16.379Z,27.75
2023-04-09T06:53:03.555Z,26.63
2023-04-09T06:55:58.189Z,26.50
2023-04-09T06:58:52.191Z,25.33
2023-04-09T07:01:47.282Z,24.13
2023-04-09T07:04:34.718Z,25.58
2023-04-09T07:07:29.172Z,22.75
2023-04-09T07:10:16.439Z,22.55
2023-04-09T07:13:10.220Z,20.70
2023-04-09T07:15:57.334Z,21.13
2023-04-09T07:18:51.207Z,22.40
2023-04-09T07:21:45.235Z,22.42
2023-04-09T07:24:39.259Z,22.83
2023-04-09T07:27:27.820Z,22.45
2023-04-09T07:30:22.293Z,20.92
2023-04-09T07:33:16.276Z,19.90
2023-04-09T07:36:10.380Z,19.48
2023-04-09T07:39:04.307Z,17.60
2023-04-09T07:41:58.282Z,18.00
2023-04-09T07:44:45.333Z,17.33
2023-04-09T07:47:39.299Z,16.30
2023-04-09T07:50:27.016Z,16.67
2023-04-09T07:53:21.331Z,18.27
2023-04-09T07:56:08.359Z,18.20
2023-04-09T07:59:02.429Z,18.08
2023-04-09T08:01:49.898Z,16.65
2023-04-09T08:04:43.476Z,14.35
2023-04-09T08:07:30.927Z,15.02
2023-04-09T08:10:24.391Z,16.80
2023-04-09T08:13:12.037Z,13.80
2023-04-09T08:16:09.609Z,14.15
2023-04-09T08:18:57.287Z,12.93
2023-04-09T08:21:51.394Z,13.65
2023-04-09T08:24:46.318Z,10.32
2023-04-09T08:27:34.718Z,11.73
2023-04-09T08:30:28.357Z,12.90
2023-04-09T08:33:15.536Z,10.40
2023-04-09T08:36:09.554Z,10.20
2023-04-09T08:38:56.729Z,12.07
2023-04-09T08:41:50.403Z,12.40
2023-04-09T08:44:44.382Z,12.85
2023-04-09T08:47:40.411Z,12.05
2023-04-09T08:50:27.562Z,12.48
2023-04-09T08:53:23.376Z,11.48
2023-04-09T08:56:10.476Z,11.40
2023-04-09T08:59:04.368Z,11.27
2023-04-09T09:02:14.473Z,17.55
2023-04-09T09:05:01.695Z,17.92
2023-04-09T09:08:01.408Z,14.32
2023-04-09T09:10:55.422Z,12.98
2023-04-09T09:13:49.423Z,13.23
2023-04-09T09:16:49.419Z,13.95
2023-04-09T09:19:43.415Z,12.52
2023-04-09T09:22:55.132Z,15.82
2023-04-09T09:25:50.411Z,15.20
2023-04-09T09:28:37.747Z,14.18
2023-04-09T09:31:32.457Z,14.10
2023-04-09T09:34:28.457Z,14.57
2023-04-09T09:37:34.301Z,13.93
2023-04-09T09:40:35.501Z,12.70
2023-04-09T09:43:47.781Z,11.27
2023-04-09T09:46:43.456Z,11.63
2023-04-09T09:49:37.499Z,13.20
2023-04-09T09:52:27.078Z,13.70
2023-04-09T09:55:22.490Z,12.32
2023-04-09T09:58:17.201Z,11.73
2023-04-09T10:01:17.486Z,14.18
2023-04-09T10:04:07.103Z,17.02
2023-04-09T10:07:02.526Z,16.02
2023-04-09T10:09:51.972Z,15.43
2023-04-09T10:12:48.573Z,15.63
2023-04-09T10:15:36.024Z,17.63
2023-04-09T10:18:30.521Z,19.60
2023-04-09T10:21:47.804Z,17.00
2023-04-09T10:24:42.519Z,15.90
2023-04-09T10:27:36.563Z,20.17
2023-04-09T10:30:36.780Z,20.60
2023-04-09T10:33:33.521Z,16.80
2023-04-09T10:36:28.662Z,15.88
2023-04-09T10:39:15.825Z,17.95
2023-04-09T10:42:18.538Z,17.27
2023-04-09T10:45:23.605Z,17.38
2023-04-09T10:48:14.258Z,21.15
2023-04-09T10:51:12.576Z,18.65
2023-04-09T10:53:59.657Z,18.70
2023-04-09T10:57:13.560Z,20.77
2023-04-09T11:00:00.784Z,18.35
2023-04-09T11:03:10.703Z,16.52
2023-04-09T11:06:08.581Z,16.92
2023-04-09T11:09:02.976Z,18.10
2023-04-09T11:12:00.612Z,16.65
2023-04-09T11:14:47.694Z,15.32
2023-04-09T11:17:43.688Z,14.88
2023-04-09T11:20:31.285Z,18.48
2023-04-09T11:23:25.585Z,17.85
2023-04-09T11:26:19.621Z,19.15
2023-04-09T11:29:16.604Z,18.73
2023-04-09T11:32:07.482Z,13.48
2023-04-09T11:35:00.626Z,19.25
2023-04-09T11:37:56.680Z,17.02
2023-04-09T11:40:51.585Z,16.30
2023-04-09T11:43:45.658Z,21.27
2023-04-09T11:46:33.443Z,15.60
2023-04-09T11:49:28.628Z,17.55
2023-04-09T11:52:18.483Z,14.35
2023-04-09T11:55:12.656Z,15.73
2023-04-09T11:58:01.337Z,15.70
2023-04-09T12:00:55.671Z,13.68
2023-04-09T12:03:42.917Z,14.27
2023-04-09T12:06:36.654Z,13.57
2023-04-09T12:09:23.713Z,11.65
2023-04-09T12:12:17.713Z,10.80
2023-04-09T12:15:20.730Z,13.48
2023-04-09T12:18:18.709Z,12.23
2023-04-09T12:21:06.291Z,11.70
2023-04-09T12:24:00.694Z,9.52
2023-04-09T12:26:54.702Z,12.18
2023-04-09T12:29:49.054Z,14.00
2023-04-09T12:32:42.754Z,12.70
2023-04-09T12:35:36.789Z,11.50
2023-04-09T12:38:30.773Z,11.23
2023-04-09T12:41:24.737Z,15.63
2023-04-09T12:44:11.799Z,11.70
2023-04-09T12:47:05.736Z,13.45
2023-04-09T12:49:53.968Z,11.90
2023-04-09T12:52:48.051Z,12.60
2023-04-09T12:55:35.124Z,12.38
2023-04-09T12:58:28.730Z,12.77
2023-04-09T13:01:15.878Z,11.05
2023-04-09T13:04:09.874Z,9.90
2023-04-09T13:06:57.028Z,10.73
2023-04-09T13:09:51.789Z,12.35
2023-04-09T13:12:38.940Z,11.32
2023-04-09T13:15:32.771Z,13.23
2023-04-09T13:18:26.787Z,9.50
2023-04-09T13:21:24.836Z,10.52
2023-04-09T13:24:11.998Z,11.05
2023-04-09T13:27:05.776Z,16.73
2023-04-09T13:29:52.847Z,14.07
2023-04-09T13:32:46.817Z,12.65
2023-04-09T13:35:40.891Z,10.82
2023-04-09T13:38:28.141Z,10.50
2023-04-09T13:41:21.915Z,9.68
2023-04-09T13:44:09.084Z,11.88
2023-04-09T13:47:02.822Z,11.90
2023-04-09T13:49:51.591Z,12.90
2023-04-09T13:52:44.876Z,14.13
2023-04-09T13:55:32.047Z,13.77
2023-04-09T13:58:26.947Z,10.45
2023-04-09T14:01:20.873Z,10.20
2023-04-09T14:04:14.991Z,10.30
2023-04-09T14:07:02.163Z,10.90
2023-04-09T14:09:57.899Z,10.57
2023-04-09T14:12:44.999Z,12.18
2023-04-09T14:15:38.926Z,12.25
2023-04-09T14:18:26.111Z,10.52
2023-04-09T14:21:19.870Z,10.40
2023-04-09T14:24:07.690Z,11.02
2023-04-09T14:27:00.951Z,13.00
2023-04-09T14:29:48.077Z,12.52
2023-04-09T14:32:41.918Z,9.15
2023-04-09T14:35:29.188Z,7.80
2023-04-09T14:38:23.948Z,6.53
2023-04-09T14:41:17.923Z,11.77
2023-04-09T14:44:05.169Z,10.20
2023-04-09T14:47:01.031Z,11.50
2023-04-09T14:49:48.186Z,10.45
2023-04-09T14:52:41.939Z,9.20
2023-04-09T14:55:35.965Z,8.88
2023-04-09T14:58:36.001Z,8.45
2023-04-09T15:01:31.823Z,8.88
2023-04-09T15:04:27.238Z,10.10
2023-04-09T15:07:14.355Z,8.77
2023-04-09T15:10:07.933Z,8.13
2023-04-09T15:12:55.293Z,8.85
2023-04-09T15:15:50.988Z,8.50
2023-04-09T15:18:38.045Z,9.57
2023-04-09T15:21:32.981Z,8.10
2023-04-09T15:24:26.995Z,7.85
2023-04-09T15:27:14.085Z,7.85
2023-04-09T15:30:07.968Z,8.52
2023-04-09T15:33:08.110Z,6.55
2023-04-09T15:35:55.865Z,8.02
2023-04-09T15:38:49.107Z,6.55
2023-04-09T15:41:43.074Z,5.93
2023-04-09T15:44:30.270Z,7.32
2023-04-09T15:47:24.092Z,7.95
2023-04-09T15:50:18.074Z,8.10
2023-04-09T15:53:12.063Z,7.50
2023-04-09T15:55:59.362Z,7.38
2023-04-09T15:58:53.278Z,8.55
2023-04-09T16:01:40.683Z,7.82
2023-04-09T16:04:34.114Z,6.82
2023-04-09T16:07:28.091Z,8.32
2023-04-09T16:10:15.689Z,6.78
2023-04-09T16:13:10.132Z,6.30
2023-04-09T16:16:04.095Z,7.65
2023-04-09T16:18:58.079Z,7.30
2023-04-09T16:21:45.689Z,6.03
2023-04-09T16:24:39.118Z,6.70
2023-04-09T16:27:26.235Z,7.55
2023-04-09T16:30:20.127Z,7.07
2023-04-09T16:33:10.364Z,7.00
2023-04-09T16:36:04.159Z,5.47
2023-04-09T16:38:58.125Z,6.70
2023-04-09T16:41:45.331Z,6.25
2023-04-09T16:44:39.175Z,5.80
2023-04-09T16:47:26.209Z,5.35
2023-04-09T16:50:20.151Z,5.30
2023-04-09T16:53:07.927Z,6.53
2023-04-09T16:56:01.181Z,5.07
2023-04-09T16:58:48.428Z,5.85
2023-04-09T17:01:42.239Z,8.13
2023-04-09T17:04:29.748Z,7.88
2023-04-09T17:07:23.186Z,6.90
2023-04-09T17:10:10.641Z,7.25
2023-04-09T17:13:04.136Z,6.40
2023-04-09T17:15:59.179Z,8.23
2023-04-09T17:18:53.389Z,7.53
2023-04-09T17:21:41.068Z,7.18
2023-04-09T17:24:34.191Z,7.72
2023-04-09T17:27:21.786Z,8.27
2023-04-09T17:30:16.222Z,7.32
2023-04-09T17:33:10.205Z,8.20
2023-04-09T17:35:57.689Z,7.95
2023-04-09T17:38:52.529Z,9.60
2023-04-09T17:41:46.188Z,6.75
2023-04-09T17:44:42.452Z,7.60
2023-04-09T17:47:29.624Z,7.68
2023-04-09T17:50:23.258Z,6.78
2023-04-09T17:53:10.384Z,6.78
2023-04-09T17:56:04.318Z,8.20
2023-04-09T17:58:58.299Z,6.50
2023-04-09T18:01:45.510Z,6.30
2023-04-09T18:04:41.412Z,6.05
2023-04-09T18:07:39.284Z,6.22
2023-04-09T18:10:27.054Z,5.70
2023-04-09T18:13:20.265Z,6.40
2023-04-09T18:16:18.545Z,7.22
2023-04-09T18:19:06.716Z,7.85
2023-04-09T18:22:00.557Z,6.60
2023-04-09T18:24:47.687Z,6.97
2023-04-09T18:27:41.648Z,7.22
2023-04-09T18:30:28.745Z,6.63
2023-04-09T18:33:22.270Z,6.03
2023-04-09T18:36:09.465Z,7.32
2023-04-09T18:39:04.476Z,6.68
2023-04-09T18:41:51.599Z,6.97
2023-04-09T18:44:45.396Z,6.07
2023-04-09T18:47:39.317Z,6.88
2023-04-09T18:50:33.330Z,7.20
2023-04-09T18:53:20.408Z,7.07
2023-04-09T18:56:14.357Z,7.65
2023-04-09T18:59:01.468Z,7.63
2023-04-09T19:01:55.518Z,6.93
2023-04-09T19:04:42.894Z,6.65
2023-04-09T19:07:36.369Z,6.90
2023-04-09T19:10:23.419Z,6.60
2023-04-09T19:13:17.373Z,6.93
2023-04-09T19:16:06.064Z,6.47
2023-04-09T19:19:00.415Z,7.45
2023-04-09T19:21:54.381Z,7.22
2023-04-09T19:24:44.424Z,11.25
2023-04-09T19:27:38.516Z,10.80
2023-04-09T19:30:25.756Z,13.02
2023-04-09T19:33:19.440Z,11.73
2023-04-09T19:36:08.183Z,11.27
2023-04-09T19:39:01.560Z,10.27
2023-04-09T19:41:48.734Z,10.30
2023-04-09T19:44:42.546Z,9.95
2023-04-09T19:47:29.701Z,9.13
2023-04-09T19:50:23.710Z,8.45
2023-04-09T19:53:10.909Z,9.02
2023-04-09T19:56:04.689Z,9.20
2023-04-09T19:58:52.076Z,9.52
2023-04-09T20:01:46.607Z,9.45
2023-04-09T20:04:40.724Z,9.80
2023-04-09T20:07:27.989Z,9.55
2023-04-09T20:10:22.390Z,8.45
2023-04-09T20:13:09.585Z,8.80
2023-04-09T20:16:03.523Z,8.77
2023-04-09T20:18:50.652Z,9.05
2023-04-09T20:21:44.503Z,8.70
2023-04-09T20:24:32.210Z,9.73
2023-04-09T20:27:25.495Z,9.10
2023-04-09T20:30:12.751Z,6.50
2023-04-09T20:33:06.739Z,9.05
2023-04-09T20:36:00.858Z,8.35
2023-04-09T20:38:55.066Z,8.50
2023-04-09T20:41:42.505Z,8.00
2023-04-09T20:44:36.539Z,7.50
2023-04-09T20:47:23.790Z,7.95
2023-04-09T20:50:17.475Z,8.65
2023-04-09T20:53:04.551Z,8.57
2023-04-09T20:55:59.563Z,9.73
2023-04-09T20:58:46.689Z,9.68
2023-04-09T21:01:40.679Z,8.75
2023-04-09T21:04:28.306Z,9.50
2023-04-09T21:07:22.622Z,9.45
2023-04-09T21:10:09.877Z,8.63
2023-04-09T21:13:03.780Z,7.88
2023-04-09T21:15:51.281Z,8.02
2023-04-09T21:18:44.817Z,8.73
2023-04-09T21:21:31.886Z,8.02
2023-04-09T21:24:25.588Z,6.95
2023-04-09T21:27:13.591Z,8.13
2023-04-09T21:30:14.785Z,8.30
2023-04-09T21:33:03.674Z,8.85
2023-04-09T21:36:00.639Z,8.38
2023-04-09T21:38:54.813Z,8.98
2023-04-09T21:41:42.204Z,8.98
2023-04-09T21:44:35.751Z,9.00
2023-04-09T21:47:23.696Z,8.88
2023-04-09T21:50:17.633Z,8.50
2023-04-09T21:53:04.804Z,8.73
2023-04-09T21:55:58.655Z,8.63
2023-04-09T21:58:45.808Z,10.05
2023-04-09T22:01:40.988Z,8.50
2023-04-09T22:04:28.640Z,8.52
2023-04-09T22:07:22.906Z,8.45
2023-04-09T22:10:10.394Z,8.27
2023-04-09T22:13:04.707Z,8.93
2023-04-09T22:15:52.729Z,7.75
2023-04-09T22:18:46.653Z,8.05
2023-04-09T22:21:33.792Z,9.30
2023-04-09T22:24:33.661Z,10.85
2023-04-09T22:27:20.778Z,9.10
2023-04-09T22:30:14.667Z,10.10
2023-04-09T22:33:08.777Z,10.50
2023-04-09T22:35:56.197Z,9.52
2023-04-09T22:38:49.947Z,10.32
2023-04-09T22:41:37.128Z,11.43
2023-04-09T22:44:31.725Z,10.07
2023-04-09T22:47:25.961Z,9.50
2023-04-09T22:50:13.963Z,10.55
2023-04-09T22:53:07.726Z,12.23
2023-04-09T22:55:57.798Z,10.90
2023-04-09T22:58:52.062Z,12.52
2023-04-09T23:01:40.246Z,11.27
2023-04-09T23:04:33.769Z,11.80
2023-04-09T23:07:21.169Z,10.88
2023-04-09T23:10:14.707Z,10.80
2023-04-09T23:13:08.698Z,10.60
2023-04-09T23:15:56.062Z,10.60
2023-04-09T23:18:50.729Z,10.30
2023-04-09T23:21:37.813Z,11.02
2023-04-09T23:24:31.770Z,11.93
2023-04-09T23:27:19.184Z,12.20
2023-04-09T23:30:13.742Z,10.40
2023-04-09T23:33:01.009Z,11.35
2023-04-09T23:35:54.871Z,11.10
2023-04-09T23:38:43.771Z,11.50
2023-04-09T23:41:38.034Z,10.45
2023-04-09T23:44:25.296Z,10.55
2023-04-09T23:47:19.826Z,10.63
2023-04-09T23:50:08.406Z,11.07
2023-04-09T23:53:05.766Z,11.20
2023-04-09T23:55:59.867Z,9.93
2023-04-09T23:58:53.829Z,9.82
